Historyczne dane pomiarowe

Dodano dane terminowe – wersja testowa.

Dane z okresu 1951-2019

Wersja bazy: 1.34 [2019-03-16, lista zmian], aktualizacja planowana na 2019-04-15

Dane meteo z obszaru Polski uzyskane na podstawie danych udostępnionych przez Instytut Meteorologii i Gospodarki Wodnej – Państwowy Instytut Badawczy.

 

Wybierz Datę:    

       

TemperaturaWilgotnośćWiatrCiśnienieOpadyŚniegCzas trwania zjawisk
 Stacja t tx tn tng RH VA  wxwx mslp ppp RRR   cm mm wxwxwxwxwxwxwx
1983-08-14 13.7 18.3 8.7- 70.3- 1.7 3.0---- 0.0------------
1983-08-13 12.3 16.5 11.3- 88.5- 4.3 1.7---- 1.4------------
1983-08-12 15.4 22.0 11.3- 81.3- 6.0 2.3---- 18.0------------
1983-08-11 19.6 26.6 11.3- 68.0- 0.0 1.0---- 0.0------------
1983-08-10 19.8 27.6 10.7- 65.8- 0.0 1.0---- 0.0------------
1983-08-09 21.2 26.6 12.1- 71.0- 2.7 1.0---- 0.0------------
1983-08-08 19.0 25.7 14.6- 78.8- 2.3 2.3---- 0.0------------
1983-08-07 16.9 23.6 9.5- 79.3- 5.3 1.7---- 0.0------------
1983-08-06 15.9 21.1 9.6- 74.3- 2.7 1.0---- 0.0------------
1983-08-05 13.6 17.3 12.3- 86.8- 5.7 2.3---- 1.2------------
1983-08-04 14.9 17.7 12.8- 96.3- 8.0 1.0---- 2.7------------
1983-08-03 13.4 18.3 12.6- 95.5- 8.0 3.7---- 42.0------------
1983-08-02 18.4 28.9 16.0- 78.8- 6.0 1.0---- 4.4------------
1983-08-01 21.5 30.5 11.5- 54.3- 2.0 3.0---- 0.0------------
1983-07-31 16.8 23.7 8.8- 72.8- 0.3 1.0---- 0.0------------
1983-07-30 15.2 17.9 13.5- 77.0- 4.0 3.0---- 0.0------------
1983-07-29 15.7 19.5 14.0- 81.8- 5.0 2.7---- 1.9------------
1983-07-28 17.8 24.9 17.1- 83.8- 6.7 4.0---- 0.0------------
1983-07-27 22.0 31.3 12.1- 59.3- 3.3 1.7---- 0.0------------
1983-07-26 18.9 27.1 10.1- 72.5- 0.0 1.7---- 0.0------------
1983-07-25 15.8 23.1 7.1- 72.8- 0.0 1.7---- 0.0------------
1983-07-24 16.0 21.1 12.1- 80.5- 2.7 1.0---- 2.3------------
1983-07-23 17.8 22.1 12.6- 66.3- 1.0 3.3---- 0.0------------
1983-07-22 14.2 19.6 9.6- 77.5- 2.0 1.7---- 0.0------------
1983-07-21 12.6 17.7 8.6- 74.3- 0.0 3.7---- 0.0------------
1983-07-20 11.2 15.7 10.3- 83.5- 7.3 5.0---- 7.3------------
1983-07-19 17.7 26.3 15.3- 78.5- 5.3 3.0---- 1.4------------
1983-07-18 21.7 31.1 12.9- 64.0- 6.7 1.0---- 14.4------------
1983-07-17 17.2 24.0 7.7- 66.8- 0.0 1.0---- 0.0------------
1983-07-16 18.6 22.0 16.3- 68.3- 5.0 3.3---- 1.0------------
1983-07-15 17.0 22.9 10.2- 68.8- 0.0 1.0---- 0.0------------
1983-07-14 19.7 23.5 16.3- 61.5- 0.0 2.3---- 0.0------------
1983-07-13 19.3 24.0 13.5- 83.0- 5.3 2.3---- 0.0------------
1983-07-12 22.4 29.5 16.1- 64.0- 0.7 2.3---- 0.0------------
1983-07-11 21.3 28.7 11.0- 68.3- 0.3 2.3---- 0.0------------
1983-07-10 23.5 30.3 11.6- 58.5- 0.0 2.3---- 0.0------------
1983-07-09 19.8 27.8 8.1- 59.8- 1.3 3.0---- 0.0------------
1983-07-08 18.6 26.1 9.5- 59.3- 0.0 3.0---- 0.0------------
1983-07-07 20.5 26.8 13.7- 53.8- 0.0 3.0---- 0.0------------
1983-07-06 19.7 28.5 9.0- 66.8- 0.0 1.7---- 0.0------------
1983-07-05 16.4 25.1 7.7- 73.5- 0.7 2.3---- 0.0------------
1983-07-04 15.2 19.4 10.5- 76.8- 5.3 2.3---- 0.0------------
1983-07-03 16.4 22.6 10.6- 73.3- 5.0 1.0---- 0.0------------
1983-07-02 15.5 21.1 11.0- 72.5- 1.7 3.0---- 0.0------------
1983-07-01 18.2 25.3 13.9- 73.8- 4.3 2.3---- 6.0------------
1983-06-30 18.2 23.0 13.1- 68.3- 6.3 2.3---- 0.2------------
1983-06-29 12.8 18.3 9.3- 73.0- 5.7 3.0---- 0.0------------
1983-06-28 13.0 16.5 10.3- 71.8- 2.7 3.0---- 2.9------------
1983-06-27 14.7 22.1 8.7- 79.5- 7.3 2.3---- 0.0------------
1983-06-26 15.3 20.3 9.1- 67.8- 2.3 3.0---- 0.0------------
1983-06-25 17.7 23.5 9.9- 61.5- 1.7 3.0---- 0.0------------
1983-06-24 18.0 26.7 6.9- 56.3- 0.0 0.7---- 0.0------------
1983-06-23 15.6 23.7 5.9- 54.5- 0.0 1.7---- 0.0------------
1983-06-22 13.3 20.3 4.6- 61.5- 0.0 2.3---- 0.0------------
1983-06-21 15.9 24.0 11.5- 65.3- 0.3 2.3---- 0.0------------
1983-06-20 17.6 25.1 8.1- 60.5- 0.0 1.0---- 0.0------------
1983-06-19 14.4 21.6 4.1- 55.5- 0.0 2.7---- 0.0------------
1983-06-18 12.6 14.4 10.6- 82.8- 6.0 3.0---- 0.0------------
1983-06-17 12.4 16.9 9.1- 77.0- 5.0 3.3---- 0.0------------
1983-06-16 11.6 15.7 8.1- 73.0- 2.0 3.3---- 0.0------------
2048.6 ms

 

Źródłem pochodzenia danych jest Instytut Meteorologii i Gospodarki Wodnej – Państwowy Instytut Badawczy. Dane Instytutu Meteorologii i Gospodarki Wodnej – Państwowego Instytutu Badawczego zostały przetworzone.

Dane źródłowe można odnaleźć na stronie https://dane.imgw.pl